createdAt,value
2023-03-29T00:00:40.995Z,-2.20
2023-03-29T00:03:17.449Z,-2.24
2023-03-29T00:05:45.367Z,-2.30
2023-03-29T00:08:14.676Z,-2.30
2023-03-29T00:10:42.845Z,-2.30
2023-03-29T00:13:11.086Z,-2.30
2023-03-29T00:15:38.934Z,-2.30
2023-03-29T00:18:06.788Z,-2.36
2023-03-29T00:20:34.694Z,-2.38
2023-03-29T00:23:02.651Z,-2.40
2023-03-29T00:25:30.451Z,-2.40
2023-03-29T00:27:58.798Z,-2.40
2023-03-29T00:30:26.725Z,-2.40
2023-03-29T00:32:54.466Z,-2.40
2023-03-29T00:35:22.401Z,-2.36
2023-03-29T00:37:51.152Z,-2.36
2023-03-29T00:40:19.382Z,-2.38
2023-03-29T00:42:47.203Z,-2.40
2023-03-29T00:45:23.092Z,-2.40
2023-03-29T00:48:04.732Z,-2.40
2023-03-29T00:50:38.051Z,-2.40
2023-03-29T00:53:15.146Z,-2.40
2023-03-29T00:55:56.181Z,-2.42
2023-03-29T00:58:33.873Z,-2.48
2023-03-29T01:01:11.686Z,-2.48
2023-03-29T01:03:47.004Z,-2.50
2023-03-29T01:06:17.105Z,-2.50
2023-03-29T01:08:49.422Z,-2.50
2023-03-29T01:11:20.345Z,-2.58
2023-03-29T01:14:00.153Z,-2.60
2023-03-29T01:16:28.656Z,-2.60
2023-03-29T01:18:58.501Z,-2.64
2023-03-29T01:21:37.924Z,-2.70
2023-03-29T01:24:33.441Z,-2.70
2023-03-29T01:27:28.581Z,-2.70
2023-03-29T01:30:01.159Z,-2.78
2023-03-29T01:32:35.470Z,-2.80
2023-03-29T01:35:14.150Z,-2.80
2023-03-29T01:37:58.546Z,-2.80
2023-03-29T01:40:31.267Z,-2.80
2023-03-29T01:43:29.021Z,-2.80
2023-03-29T01:46:20.926Z,-2.82
2023-03-29T01:49:00.132Z,-2.90
2023-03-29T01:52:03.801Z,-2.90
2023-03-29T01:54:41.510Z,-2.98
2023-03-29T01:57:10.566Z,-3.00
2023-03-29T01:59:41.313Z,-3.00
2023-03-29T02:02:12.003Z,-3.06
2023-03-29T02:04:48.070Z,-3.10
2023-03-29T02:07:17.834Z,-3.10
2023-03-29T02:09:45.999Z,-3.10
2023-03-29T02:12:13.834Z,-3.10
2023-03-29T02:14:41.652Z,-3.18
2023-03-29T02:17:24.567Z,-3.20
2023-03-29T02:20:00.765Z,-3.20
2023-03-29T02:22:33.688Z,-3.20
2023-03-29T02:25:02.040Z,-3.20
2023-03-29T02:27:30.092Z,-3.22
2023-03-29T02:29:58.550Z,-3.20
2023-03-29T02:32:49.118Z,-3.24
2023-03-29T02:35:22.602Z,-3.30
2023-03-29T02:37:51.391Z,-3.30
2023-03-29T02:40:20.124Z,-3.30
2023-03-29T02:42:47.957Z,-3.30
2023-03-29T02:45:17.369Z,-3.38
2023-03-29T02:47:49.739Z,-3.40
2023-03-29T02:50:19.522Z,-3.40
2023-03-29T02:52:56.847Z,-3.40
2023-03-29T02:55:25.496Z,-3.40
2023-03-29T02:57:53.296Z,-3.40
2023-03-29T03:00:23.284Z,-3.40
2023-03-29T03:02:52.332Z,-3.44
2023-03-29T03:05:20.708Z,-3.50
2023-03-29T03:07:48.624Z,-3.48
2023-03-29T03:10:16.987Z,-3.50
2023-03-29T03:12:44.864Z,-3.50
2023-03-29T03:15:13.538Z,-3.50
2023-03-29T03:17:41.766Z,-3.50
2023-03-29T03:20:14.256Z,-3.50
2023-03-29T03:22:49.016Z,-3.50
2023-03-29T03:25:19.591Z,-3.50
2023-03-29T03:27:49.266Z,-3.50
2023-03-29T03:30:19.057Z,-3.48
2023-03-29T03:33:06.846Z,-3.48
2023-03-29T03:36:10.892Z,-3.40
2023-03-29T03:38:38.938Z,-3.40
2023-03-29T03:41:09.526Z,-3.40
2023-03-29T03:43:37.762Z,-3.40
2023-03-29T03:46:05.791Z,-3.48
2023-03-29T03:48:33.733Z,-3.50
2023-03-29T03:51:17.801Z,-3.50
2023-03-29T03:53:45.831Z,-3.50
2023-03-29T03:56:14.068Z,-3.50
2023-03-29T03:59:01.150Z,-3.52
2023-03-29T04:01:31.402Z,-3.60
2023-03-29T04:04:04.809Z,-3.60
2023-03-29T04:06:33.311Z,-3.60
2023-03-29T04:09:20.304Z,-3.64
2023-03-29T04:11:57.005Z,-3.62
2023-03-29T04:14:26.205Z,-3.70
2023-03-29T04:17:09.169Z,-3.70
2023-03-29T04:19:47.772Z,-3.70
2023-03-29T04:22:15.894Z,-3.70
2023-03-29T04:24:44.253Z,-3.70
2023-03-29T04:27:28.559Z,-3.68
2023-03-29T04:29:57.582Z,-3.60
2023-03-29T04:32:49.077Z,-3.60
2023-03-29T04:35:17.972Z,-3.60
2023-03-29T04:37:46.527Z,-3.60
2023-03-29T04:40:15.295Z,-3.50
2023-03-29T04:42:52.743Z,-3.50
2023-03-29T04:45:21.339Z,-3.46
2023-03-29T04:48:12.196Z,-3.40
2023-03-29T04:50:46.834Z,-3.38
2023-03-29T04:53:15.325Z,-3.30
2023-03-29T04:55:46.839Z,-3.20
2023-03-29T04:58:22.166Z,-3.16
2023-03-29T05:00:51.748Z,-3.10
2023-03-29T05:03:42.243Z,-3.02
2023-03-29T05:06:29.233Z,-2.96
2023-03-29T05:08:57.250Z,-2.90
2023-03-29T05:11:33.798Z,-2.80
2023-03-29T05:14:03.447Z,-2.70
2023-03-29T05:16:34.726Z,-2.64
2023-03-29T05:19:02.937Z,-2.60
2023-03-29T05:21:31.180Z,-2.50
2023-03-29T05:24:02.890Z,-2.40
2023-03-29T05:26:54.180Z,-2.30
2023-03-29T05:29:23.530Z,-2.20
2023-03-29T05:31:57.429Z,-2.10
2023-03-29T05:34:26.598Z,-2.00
2023-03-29T05:36:59.272Z,-1.90
2023-03-29T05:39:29.166Z,-1.86
2023-03-29T05:41:58.829Z,-1.80
2023-03-29T05:44:31.003Z,-1.64
2023-03-29T05:47:07.360Z,-1.60
2023-03-29T05:49:35.562Z,-1.56
2023-03-29T05:52:08.058Z,-1.50
2023-03-29T05:54:36.893Z,-1.40
2023-03-29T05:57:06.328Z,-1.30
2023-03-29T05:59:34.857Z,-1.26
2023-03-29T06:02:05.834Z,-1.14
2023-03-29T06:04:36.682Z,-1.02
2023-03-29T06:07:25.047Z,-0.92
2023-03-29T06:10:16.043Z,-0.80
2023-03-29T06:12:47.921Z,-0.74
2023-03-29T06:15:16.570Z,-0.66
2023-03-29T06:17:47.946Z,-0.58
2023-03-29T06:20:17.160Z,-0.50
2023-03-29T06:22:48.662Z,-0.40
2023-03-29T06:25:17.759Z,-0.40
2023-03-29T06:27:47.090Z,-0.30
2023-03-29T06:30:17.221Z,-0.24
2023-03-29T06:32:50.667Z,-0.20
2023-03-29T06:35:47.496Z,-0.10
2023-03-29T06:38:18.186Z,0.00
2023-03-29T06:41:07.725Z,0.20
2023-03-29T06:43:50.336Z,0.30
2023-03-29T06:46:19.606Z,0.40
2023-03-29T06:49:02.330Z,0.50
2023-03-29T06:51:36.189Z,0.60
2023-03-29T06:54:05.501Z,0.70
2023-03-29T06:56:34.336Z,0.80
2023-03-29T06:59:05.466Z,0.90
2023-03-29T07:01:38.618Z,0.96
2023-03-29T07:04:14.932Z,1.08
2023-03-29T07:07:02.014Z,1.16
2023-03-29T07:09:32.263Z,1.20
2023-03-29T07:12:24.686Z,1.28
2023-03-29T07:14:53.745Z,1.30
2023-03-29T07:17:23.593Z,1.40
2023-03-29T07:19:51.686Z,1.50
2023-03-29T07:22:47.464Z,1.60
2023-03-29T07:25:16.647Z,1.70
2023-03-29T07:27:45.042Z,1.70
2023-03-29T07:30:16.927Z,1.80
2023-03-29T07:32:46.616Z,1.80
2023-03-29T07:35:28.671Z,1.90
2023-03-29T07:37:57.358Z,2.00
2023-03-29T07:40:27.410Z,2.10
2023-03-29T07:42:59.008Z,2.20
2023-03-29T07:45:32.112Z,2.30
2023-03-29T07:48:02.687Z,2.40
2023-03-29T07:50:43.306Z,2.40
2023-03-29T07:53:11.109Z,2.50
2023-03-29T07:55:47.347Z,2.50
2023-03-29T07:58:38.410Z,2.60
2023-03-29T08:01:08.530Z,2.60
2023-03-29T08:04:00.234Z,2.60
2023-03-29T08:06:49.090Z,2.68
2023-03-29T08:09:17.794Z,2.70
2023-03-29T08:11:45.836Z,2.80
2023-03-29T08:14:24.165Z,2.90
2023-03-29T08:17:00.466Z,3.00
2023-03-29T08:19:29.089Z,3.04
2023-03-29T08:22:07.397Z,3.12
2023-03-29T08:24:54.608Z,3.30
2023-03-29T08:27:24.914Z,3.38
2023-03-29T08:29:52.984Z,3.46
2023-03-29T08:32:21.290Z,3.60
2023-03-29T08:34:49.977Z,3.70
2023-03-29T08:37:38.223Z,3.78
2023-03-29T08:40:07.749Z,3.86
2023-03-29T08:42:56.861Z,4.00
2023-03-29T08:46:03.907Z,4.10
2023-03-29T08:48:54.627Z,4.10
2023-03-29T08:51:25.721Z,4.14
2023-03-29T08:53:58.286Z,4.20
2023-03-29T08:56:34.379Z,4.30
2023-03-29T08:59:31.560Z,4.40
2023-03-29T09:02:01.447Z,4.42
2023-03-29T09:04:39.041Z,4.50
2023-03-29T09:07:26.769Z,4.60
2023-03-29T09:09:56.146Z,4.70
2023-03-29T09:12:54.829Z,4.70
2023-03-29T09:15:43.922Z,4.70
2023-03-29T09:18:41.428Z,4.80
2023-03-29T09:21:39.021Z,4.80
2023-03-29T09:24:15.910Z,4.80
2023-03-29T09:27:01.118Z,5.00
2023-03-29T09:30:04.778Z,5.00
2023-03-29T09:33:03.085Z,5.10
2023-03-29T09:36:18.854Z,5.20
2023-03-29T09:38:51.077Z,5.30
2023-03-29T09:41:36.063Z,5.30
2023-03-29T09:44:17.649Z,5.40
2023-03-29T09:46:58.627Z,5.40
2023-03-29T09:49:32.359Z,5.40
2023-03-29T09:52:04.659Z,5.48
2023-03-29T09:54:32.927Z,5.50
2023-03-29T09:57:24.036Z,5.50
2023-03-29T09:59:52.672Z,5.60
2023-03-29T10:02:21.351Z,5.72
2023-03-29T10:05:01.062Z,5.80
2023-03-29T10:07:52.949Z,5.90
2023-03-29T10:10:29.454Z,5.90
2023-03-29T10:13:03.373Z,5.98
2023-03-29T10:15:31.802Z,6.00
2023-03-29T10:18:03.246Z,6.00
2023-03-29T10:20:31.901Z,6.04
2023-03-29T10:22:59.747Z,6.20
2023-03-29T10:25:31.319Z,6.20
2023-03-29T10:28:13.644Z,6.20
2023-03-29T10:30:42.773Z,6.30
2023-03-29T10:33:19.457Z,6.34
2023-03-29T10:35:47.457Z,6.40
2023-03-29T10:38:18.706Z,6.50
2023-03-29T10:40:48.820Z,6.60
2023-03-29T10:43:33.192Z,6.60
2023-03-29T10:46:19.874Z,6.70
2023-03-29T10:48:56.867Z,6.70
2023-03-29T10:51:27.704Z,6.80
2023-03-29T10:54:01.056Z,6.90
2023-03-29T10:56:41.496Z,6.86
2023-03-29T10:59:23.860Z,6.90
2023-03-29T11:02:18.208Z,6.90
2023-03-29T11:05:25.024Z,6.90
2023-03-29T11:07:59.083Z,7.08
2023-03-29T11:10:54.572Z,7.20
2023-03-29T11:13:33.442Z,7.20
2023-03-29T11:16:19.763Z,7.30
2023-03-29T11:19:03.586Z,7.30
2023-03-29T11:22:05.161Z,7.32
2023-03-29T11:25:01.786Z,7.30
2023-03-29T11:27:41.966Z,7.40
2023-03-29T11:31:03.667Z,7.46
2023-03-29T11:33:47.251Z,7.50
2023-03-29T11:36:25.124Z,7.60
2023-03-29T11:39:17.617Z,7.60
2023-03-29T11:41:48.584Z,7.70
2023-03-29T11:44:32.000Z,7.80
2023-03-29T11:47:05.184Z,7.90
2023-03-29T11:49:51.894Z,7.90
2023-03-29T11:52:40.989Z,7.80
2023-03-29T11:55:27.640Z,7.62
2023-03-29T11:58:18.841Z,7.74
2023-03-29T12:00:55.778Z,7.90
2023-03-29T12:03:37.004Z,7.90
2023-03-29T12:06:13.329Z,7.94
2023-03-29T12:08:48.836Z,8.04
2023-03-29T12:11:27.272Z,8.10
2023-03-29T12:14:15.348Z,8.20
2023-03-29T12:16:49.623Z,8.20
2023-03-29T12:19:22.097Z,8.20
2023-03-29T12:21:50.032Z,8.20
2023-03-29T12:24:19.791Z,8.30
2023-03-29T12:27:00.512Z,8.40
2023-03-29T12:30:18.854Z,8.50
2023-03-29T12:33:16.059Z,8.60
2023-03-29T12:36:13.722Z,8.70
2023-03-29T12:39:01.512Z,8.80
2023-03-29T12:42:19.952Z,8.80
